Terminal Aerodrome Forecast
Issued by NWS San Angelo, TX

Home | Current Version | Previous Version | Text Only | Print | Product List | Glossary On
Versions: 1 2 3 4 5 6 7 8 9 10 11 12 13 14 15 16 17 18 19 20
000
FTUS44 KSJT 190900 AAA
TAFABI
TAF AMD
KABI 190941Z 1910/2006 15007KT P6SM SCT015
      TEMPO 1911/1915 BKN012
     FM191500 17010KT P6SM SCT025 BKN050
     FM191900 16010KT P6SM SCT050 BKN100=

USA.gov is the U.S. government's official web portal to all federal, state and local government web resources and services.